Stations météo

Publicité
Besancon, France (7288): Température de l'air & dewpoint: 14.08.2019 13:00:00 - 20.08.2019 13:00:00 (CEST)Besancon, France (7288): Température de l'air 5cm: 14.08.2019 13:00:00 - 20.08.2019 13:00:00 (CEST)Besancon, France (7288): Température de l'air -20cm & Température de l'air -100cm: 14.08.2019 13:00:00 - 20.08.2019 13:00:00 (CEST)Besancon, France (7288): Vitesse du vent & gusts: 14.08.2019 13:00:00 - 20.08.2019 13:00:00 (CEST)Besancon, France (7288): Direction du vent: 14.08.2019 13:00:00 - 20.08.2019 13:00:00 (CEST)Besancon, France (7288): reduced air pressure: 14.08.2019 13:00:00 - 20.08.2019 13:00:00 (CEST)Besancon, France (7288): Ensoleillement: 14.08.2019 13:00:00 - 20.08.2019 13:00:00 (CEST)Besancon, France (7288): Quantités de précipitations: 14.08.2019 13:00:00 - 20.08.2019 13:00:00 (CEST)
Date & Time tt [°C] td [°C] tt 5cm [°C] tt -20cm [°C] tt -100cm [°C] ff [km/h] ff [knt] fx [km/h] fx [knt] dd ppp [hPa] sd [min] rr [mm]
20.08.2019 13:00:00 17,5 14,6 19,4 20,7 19,4 4 2 14 8 NNE 1022,7 0 0,0
20.08.2019 12:00:00 17,2 14,8 17,5 20,8 19,5 0 0 8 4 N 1022,7 0 0,0
20.08.2019 11:00:00 16,1 14,6 16,1 20,8 19,5 4 2 12 7 N 1022,8 0 0,0
20.08.2019 10:00:00 16,1 14,5 15,9 20,9 19,5 2 1 7 4 NNE 1022,2 0 0,0
20.08.2019 09:00:00 15,5 14,4 15,3 21,0 19,4 0 0 6 4 N 1021,8 0 0,0
20.08.2019 08:00:00 15,0 14,2 13,8 21,0 19,4 0 0 4 2 N 1021,6 0 0,0
20.08.2019 07:00:00 14,7 13,9 13,6 21,2 19,4 2 1 6 3 N 1021,0 0 0,0
20.08.2019 06:00:00 15,1 14,5 13,9 21,2 19,4 0 0 8 5 N 1020,6 0 0,0
20.08.2019 05:00:00 15,1 14,5 14,2 21,3 19,4 0 0 5 3 N 1021,3 0 0,0
20.08.2019 04:00:00 15,1 14,5 12,5 21,4 19,4 3 1 4 2 NNE 1021,1 0 0,0
20.08.2019 03:00:00 15,1 14,3 12,6 21,5 19,4 0 0 2 1 N 1021,4 0 0,0
20.08.2019 02:00:00 15,6 14,6 13,3 21,5 19,4 0 0 4 2 N 1021,6 0 0,0
20.08.2019 01:00:00 15,9 14,9 13,7 21,6 19,4 0 0 4 2 N 1021,8 0 0,0
20.08.2019 00:00:00 16,1 15,1 13,2 21,7 19,5 0 0 5 3 N 1021,4 0 0,0
19.08.2019 23:00:00 16,6 15,5 14,3 21,7 19,4 0 0 4 2 N 1021,2 0 0,0
19.08.2019 22:00:00 17,2 15,9 15,1 21,7 19,4 0 0 4 2 N 1020,8 0 0,0
19.08.2019 21:00:00 17,9 15,5 16,0 21,7 19,4 0 0 8 5 N 1019,9 17 0,0
19.08.2019 20:00:00 19,9 15,1 20,3 21,7 19,4 3 1 11 6 SSW 1019,2 60 0,0
19.08.2019 19:00:00 19,8 15,2 22,2 21,7 19,4 6 3 12 7 SW 1019,0 32 0,0
19.08.2019 18:00:00 19,7 15,8 22,9 21,6 19,4 3 2 14 7 SSW 1019,1 10 0,0
19.08.2019 17:00:00 19,3 16,0 21,0 21,6 19,4 5 3 18 10 SSW 1019,3 2 0,0
19.08.2019 16:00:00 18,8 15,3 21,2 21,6 19,4 6 3 14 8 SW 1019,4 0 0,0
19.08.2019 15:00:00 18,9 15,4 21,4 21,5 19,4 5 3 13 7 SSW 1019,3 0 0,0
19.08.2019 14:00:00 18,8 15,3 21,3 21,5 19,4 3 1 9 5 WSW 1019,1 0 0,0
19.08.2019 13:00:00 19,0 15,5 20,5 21,5 19,4 3 2 8 4 SSE 1018,8 0 0,0
19.08.2019 12:00:00 19,3 15,4 21,1 21,5 19,4 3 2 10 5 W 1018,3 0 0,0
19.08.2019 11:00:00 19,2 14,9 22,0 21,5 19,4 5 3 13 7 NNW 1018,1 10 0,0
19.08.2019 10:00:00 18,9 15,9 20,4 21,6 19,4 6 3 12 6 NNW 1017,6 13 0,0
19.08.2019 09:00:00 18,2 16,7 18,6 21,6 19,4 3 2 12 6 NW 1017,6 2 0,0
19.08.2019 08:00:00 18,1 17,3 17,7 21,7 19,4 3 2 11 6 W 1017,5 0 0,0
19.08.2019 07:00:00 18,1 17,3 17,7 21,7 19,4 5 3 16 9 W 1016,8 0 0,0
19.08.2019 06:00:00 18,4 17,6 17,9 21,8 19,4 10 5 23 13 SW 1016,0 0 0,0
19.08.2019 05:00:00 18,6 17,9 18,1 21,9 19,4 8 4 20 11 SW 1015,9 0 3,5
19.08.2019 04:00:00 18,5 17,8 17,8 22,0 19,4 0 0 6 3 N 1015,8 0 0,2
19.08.2019 03:00:00 18,5 17,8 17,5 22,0 19,4 0 0 5 3 N 1015,8 0 0,0
19.08.2019 02:00:00 18,4 17,7 17,7 22,1 19,4 0 0 6 4 N 1015,3 0 4,3
19.08.2019 01:00:00 18,4 17,7 17,9 22,2 19,4 0 0 5 3 N 1015,3 0 1,4
19.08.2019 00:00:00 18,6 17,8 18,2 22,2 19,4 0 0 7 4 N 1015,1 0 4,4
18.08.2019 23:00:00 18,6 17,8 17,5 22,2 19,4 3 2 9 5 SSW 1015,2 0 1,1
18.08.2019 22:00:00 18,1 16,9 17,3 22,2 19,4 4 2 14 8 N 1013,7 0 3,6
18.08.2019 21:00:00 19,4 17,4 18,3 22,1 19,4 8 4 32 18 N 1012,8 0 0,8
18.08.2019 20:00:00 24,4 17,6 22,7 22,0 19,4 9 5 27 15 NW 1009,9 0 0,0
18.08.2019 19:00:00 27,4 16,7 27,0 21,9 19,4 6 3 19 11 WSW 1009,6 19 0,0
18.08.2019 18:00:00 28,5 16,4 29,0 21,8 19,4 8 5 24 13 WNW 1009,4 37 0,0
18.08.2019 17:00:00 29,7 15,8 29,4 21,6 19,5 11 6 29 16 SW 1009,1 16 0,0
18.08.2019 16:00:00 29,0 16,2 29,8 21,4 19,4 9 5 30 16 SW 1009,5 21 0,0
18.08.2019 15:00:00 29,5 15,2 30,5 21,2 19,4 13 7 33 18 SW 1009,1 37 0,0
18.08.2019 14:00:00 28,4 15,0 33,0 21,0 19,4 17 9 51 27 WSW 1009,8 56 0,0
18.08.2019 13:00:00 28,5 14,7 35,2 20,9 19,4 20 11 48 26 SW 1009,1 60 0,0
18.08.2019 12:00:00 28,3 13,0 33,5 20,9 19,4 22 12 44 24 SW 1008,5 60 0,0
18.08.2019 11:00:00 26,3 14,4 31,9 20,9 19,4 10 5 26 14 SW 1008,7 60 0,0
18.08.2019 10:00:00 23,9 13,7 23,5 21,0 19,4 6 3 13 7 SW 1009,4 60 0,0
18.08.2019 09:00:00 20,7 14,6 15,0 21,0 19,4 2 1 6 4 SW 1009,8 60 0,0
18.08.2019 08:00:00 16,8 14,3 12,9 21,2 19,4 0 0 5 3 N 1010,5 29 0,0
18.08.2019 07:00:00 16,2 13,9 12,5 21,2 19,4 2 1 4 2 NNE 1010,6 0 0,0
18.08.2019 06:00:00 16,6 13,9 12,7 21,3 19,4 0 0 3 2 N 1010,4 0 0,0
18.08.2019 05:00:00 17,2 14,1 13,6 21,4 19,5 3 2 5 3 NNE 1010,9 0 0,0
18.08.2019 04:00:00 17,3 14,2 14,2 21,5 19,4 2 1 3 2 NNE 1011,6 0 0,0
18.08.2019 03:00:00 17,7 14,4 14,1 21,5 19,4 0 0 3 2 N 1011,9 0 0,0
18.08.2019 02:00:00 18,5 14,2 15,0 21,6 19,4 0 0 2 1 N 1012,1 0 0,0
18.08.2019 01:00:00 18,6 14,7 15,1 21,7 19,5 0 0 5 3 N 1012,1 0 0,0
18.08.2019 00:00:00 19,5 14,3 15,5 21,7 19,5 0 0 6 4 N 1011,7 0 0,0
17.08.2019 23:00:00 19,8 14,8 15,9 21,8 19,5 2 1 5 3 N 1011,3 0 0,0
17.08.2019 22:00:00 20,9 15,0 16,5 21,8 19,5 0 0 4 2 N 1011,1 0 0,0
17.08.2019 21:00:00 22,9 13,4 18,9 21,7 19,5 0 0 2 1 N 1010,7 20 0,0
17.08.2019 20:00:00 24,0 13,8 22,2 21,6 19,5 0 0 8 4 N 1010,8 5 0,0
17.08.2019 19:00:00 25,0 13,5 24,5 21,5 19,5 0 0 14 8 N 1011,2 0 0,0
17.08.2019 18:00:00 25,6 12,8 25,6 21,4 19,5 6 4 21 11 SW 1011,7 20 0,0
17.08.2019 17:00:00 26,1 12,5 28,1 21,3 19,5 9 5 31 17 SW 1012,0 11 0,0
17.08.2019 16:00:00 25,8 13,3 26,9 21,1 19,4 6 3 21 12 WSW 1012,1 12 0,0
17.08.2019 15:00:00 26,4 12,1 26,9 21,0 19,5 8 4 20 11 SW 1012,3 18 0,0
17.08.2019 14:00:00 25,0 12,9 28,1 20,9 19,5 8 4 20 11 WSW 1012,9 0 0,0
17.08.2019 13:00:00 25,0 13,9 27,4 20,8 19,5 9 5 23 13 WSW 1013,8 25 0,0
17.08.2019 12:00:00 23,3 13,2 24,3 20,8 19,5 10 5 24 13 SW 1014,5 31 0,0
17.08.2019 11:00:00 23,0 12,9 24,1 20,8 19,5 13 7 29 16 SW 1014,6 46 0,0
17.08.2019 10:00:00 21,5 12,9 20,7 20,8 19,5 7 4 15 8 SW 1014,9 6 0,0
17.08.2019 09:00:00 20,0 12,5 18,9 20,9 19,5 6 3 15 8 S 1014,7 5 0,0
17.08.2019 08:00:00 18,0 12,0 13,8 21,0 19,5 3 1 10 5 SW 1014,6 8 0,0
17.08.2019 07:00:00 15,7 12,4 13,0 21,1 19,5 0 0 6 3 N 1014,8 0 0,0
17.08.2019 06:00:00 16,0 11,6 12,8 21,2 19,5 2 1 6 4 SSW 1014,8 0 0,0
17.08.2019 05:00:00 15,2 12,9 13,2 21,3 19,5 0 0 4 2 N 1014,6 0 0,0
17.08.2019 04:00:00 14,7 12,7 11,0 21,4 19,5 2 1 4 2 NNE 1014,8 0 0,0
17.08.2019 03:00:00 14,7 12,7 11,0 21,5 19,5 3 2 5 3 NNE 1014,9 0 0,0
17.08.2019 02:00:00 15,2 12,9 11,8 21,6 19,5 0 0 4 2 N 1015,2 0 0,0
17.08.2019 01:00:00 16,2 13,1 12,6 21,6 19,5 0 0 0 0 N 1015,3 0 0,0
17.08.2019 00:00:00 17,2 12,5 13,7 21,7 19,5 0 0 3 1 N 1015,4 0 0,0
16.08.2019 23:00:00 18,2 12,4 14,9 21,7 19,5 0 0 2 1 N 1015,4 0 0,0
16.08.2019 22:00:00 18,9 12,4 15,6 21,7 19,5 0 0 4 2 N 1015,3 0 0,0
16.08.2019 21:00:00 20,2 11,9 15,7 21,6 19,5 0 0 6 4 N 1015,2 0 0,0
16.08.2019 20:00:00 22,1 11,5 20,1 21,5 19,5 3 2 12 6 WSW 1014,9 15 0,0
16.08.2019 19:00:00 24,2 10,5 25,8 21,4 19,5 7 4 13 7 W 1014,7 44 0,0
16.08.2019 18:00:00 24,2 11,2 28,2 21,2 19,5 4 2 15 8 WSW 1015,2 55 0,0
16.08.2019 17:00:00 24,3 10,2 28,5 20,9 19,5 5 3 16 9 W 1015,9 50 0,0
16.08.2019 16:00:00 24,4 9,9 30,1 20,7 19,5 3 1 16 9 WSW 1016,4 55 0,0
16.08.2019 15:00:00 24,0 10,3 32,7 20,5 19,6 6 3 16 9 WSW 1017,1 56 0,0
16.08.2019 14:00:00 23,2 11,6 32,8 20,4 19,6 6 3 15 8 W 1017,7 56 0,0
16.08.2019 13:00:00 22,1 10,9 32,7 20,3 19,6 6 4 11 6 N 1017,9 60 0,0
16.08.2019 12:00:00 21,9 11,9 30,7 20,3 19,6 0 0 10 5 N 1018,4 58 0,0
16.08.2019 11:00:00 20,3 12,8 24,7 20,2 19,5 3 2 9 5 NNE 1019,3 49 0,0
16.08.2019 10:00:00 18,8 12,1 17,8 20,4 19,6 2 1 7 4 W 1020,1 60 0,0
16.08.2019 09:00:00 15,9 11,7 13,3 20,5 19,6 2 1 8 4 S 1020,8 60 0,0
16.08.2019 08:00:00 14,1 13,1 11,8 20,6 19,6 0 0 4 2 N 1020,8 56 0,0
16.08.2019 07:00:00 12,8 12,2 11,8 20,6 19,6 0 0 4 2 N 1020,9 1 0,0
16.08.2019 06:00:00 12,5 11,9 9,0 20,8 19,6 0 0 4 2 N 1020,6 0 0,0
16.08.2019 05:00:00 12,9 12,1 9,2 20,9 19,6 0 0 4 2 N 1020,8 0 0,0
16.08.2019 04:00:00 13,7 12,6 9,7 20,9 19,6 0 0 3 1 N 1020,8 0 0,0
16.08.2019 03:00:00 14,7 13,1 11,0 21,0 19,6 0 0 3 2 N 1020,9 0 0,0
16.08.2019 02:00:00 15,4 13,2 13,5 21,1 19,6 0 0 0 0 N 1020,9 0 0,0
16.08.2019 01:00:00 15,1 13,6 13,2 21,2 19,6 0 0 2 1 N 1021,3 0 0,0
16.08.2019 00:00:00 14,6 13,3 10,9 21,3 19,6 0 0 3 1 N 1021,2 0 0,0
15.08.2019 23:00:00 15,3 13,1 11,4 21,3 19,6 0 0 5 3 N 1020,7 0 0,0
15.08.2019 22:00:00 16,9 13,6 12,5 21,3 19,6 0 0 12 7 N 1020,2 0 0,0
15.08.2019 21:00:00 18,9 12,9 16,6 21,3 19,6 0 0 8 4 N 1019,3 0 0,0
15.08.2019 20:00:00 20,4 12,1 19,7 21,3 19,6 4 2 31 17 W 1018,7 0 0,0
15.08.2019 19:00:00 20,9 11,8 21,5 21,2 19,6 10 5 26 14 WSW 1018,3 12 0,0
15.08.2019 18:00:00 21,0 11,6 21,1 21,1 19,6 9 5 29 15 WSW 1017,7 7 0,0
15.08.2019 17:00:00 21,9 11,9 21,6 21,0 19,6 9 5 34 18 WSW 1017,2 14 0,0
15.08.2019 16:00:00 21,0 13,2 21,9 20,9 19,6 14 8 35 19 W 1017,1 25 0,0
15.08.2019 15:00:00 21,9 13,8 18,8 20,8 19,6 18 10 37 20 SW 1016,5 30 0,0
15.08.2019 14:00:00 19,8 14,6 21,1 20,7 19,6 16 8 38 21 SW 1017,1 12 0,0
15.08.2019 13:00:00 18,9 15,2 21,5 20,7 19,6 13 7 29 16 SSW 1017,1 18 0,0
15.08.2019 12:00:00 17,8 16,0 15,9 20,7 19,6 11 6 28 15 SSW 1017,3 12 0,4
15.08.2019 11:00:00 15,7 14,6 15,6 20,8 19,6 9 5 29 16 SW 1017,6 0 2,0
15.08.2019 10:00:00 17,9 13,8 18,0 20,8 19,6 4 2 14 8 SSW 1016,6 0 0,0
15.08.2019 09:00:00 16,9 13,6 15,8 20,9 19,7 5 3 27 14 SSW 1016,7 0 0,0
15.08.2019 08:00:00 17,2 12,3 16,5 21,0 19,7 13 7 29 15 SW 1016,6 0 0,0
15.08.2019 07:00:00 17,7 10,8 15,0 21,0 19,6 9 5 17 9 SSW 1015,9 0 0,0
15.08.2019 06:00:00 16,8 10,6 13,5 21,1 19,6 4 2 10 5 SSW 1015,6 0 0,0
15.08.2019 05:00:00 15,3 11,1 13,5 21,3 19,7 0 0 6 4 N 1016,1 0 0,0
15.08.2019 04:00:00 14,9 11,1 11,5 21,4 19,7 0 0 7 4 N 1016,7 0 0,0
15.08.2019 03:00:00 13,6 10,9 10,4 21,5 19,7 3 2 5 3 NNE 1016,7 0 0,0
15.08.2019 02:00:00 13,2 11,3 9,9 21,6 19,7 2 1 5 3 NNE 1017,2 0 0,0
15.08.2019 01:00:00 13,3 11,0 9,8 21,7 19,7 3 1 7 4 NNE 1017,4 0 0,0
15.08.2019 00:00:00 14,3 11,6 10,4 21,7 19,7 2 1 4 2 NNE 1017,3 0 0,0
14.08.2019 23:00:00 15,3 11,5 11,0 21,8 19,7 0 0 3 1 N 1017,2 0 0,0
14.08.2019 22:00:00 17,1 11,4 12,3 21,8 19,7 0 0 2 1 N 1017,2 0 0,0
14.08.2019 21:00:00 19,3 10,6 14,5 21,7 19,7 0 0 9 5 N 1016,5 17 0,0
14.08.2019 20:00:00 22,3 9,1 21,7 21,6 19,7 4 2 12 6 NNW 1016,4 52 0,0
14.08.2019 19:00:00 23,3 8,2 27,6 21,4 19,7 6 3 14 7 NW 1016,3 60 0,0
14.08.2019 18:00:00 23,8 8,2 31,2 21,2 19,7 6 3 14 8 NW 1016,5 60 0,0
14.08.2019 17:00:00 24,3 9,5 34,4 21,0 19,7 4 2 19 10 WNW 1016,8 60 0,0
14.08.2019 16:00:00 23,6 8,1 35,1 20,7 19,7 6 3 16 9 NNW 1017,5 60 0,0
14.08.2019 15:00:00 23,4 7,9 34,5 20,5 19,7 6 3 15 8 NNW 1018,0 60 0,0
14.08.2019 14:00:00 22,7 7,6 34,9 20,3 19,7 5 3 15 8 WSW 1018,6 60 0,0
14.08.2019 13:00:00 22,2 8,3 33,8 20,2 19,7 3 1 13 7 NNE 1019,0 60 0,0

tt = Température de l'air
td = dewpoint
tt 5cm = Température de l'air 5cm
tt -20cm = Température de l'air -20cm
tt -100cm = Température de l'air -100cm
ff = Vitesse du vent
fx = gusts
dd = Direction du vent
ppp = reduced air pressure
sd = Ensoleillement
rr = Quantités de précipitations

stations d'obs. à proximité